createdAt,value
2023-04-16T00:01:35.012Z,100386.28
2023-04-16T00:04:01.933Z,100390.50
2023-04-16T00:06:28.700Z,100403.75
2023-04-16T00:08:55.365Z,100405.38
2023-04-16T00:11:22.250Z,100406.88
2023-04-16T00:13:49.123Z,100395.38
2023-04-16T00:16:16.169Z,100387.25
2023-04-16T00:18:42.951Z,100394.13
2023-04-16T00:21:09.657Z,100391.22
2023-04-16T00:23:36.332Z,100386.31
2023-04-16T00:26:02.980Z,100385.78
2023-04-16T00:28:29.754Z,100391.44
2023-04-16T00:30:56.382Z,100388.72
2023-04-16T00:33:24.311Z,100391.88
2023-04-16T00:35:51.269Z,100391.34
2023-04-16T00:38:18.254Z,100387.19
2023-04-16T00:40:44.887Z,100393.19
2023-04-16T00:43:11.452Z,100392.84
2023-04-16T00:45:38.578Z,100394.41
2023-04-16T00:48:05.976Z,100394.16
2023-04-16T00:50:33.656Z,100395.09
2023-04-16T00:53:01.630Z,100395.72
2023-04-16T00:55:28.420Z,100393.31
2023-04-16T00:57:55.039Z,100398.31
2023-04-16T01:00:21.686Z,100394.25
2023-04-16T01:02:48.529Z,100398.13
2023-04-16T01:05:15.712Z,100396.88
2023-04-16T01:07:42.357Z,100397.34
2023-04-16T01:10:09.077Z,100402.16
2023-04-16T01:12:35.878Z,100397.63
2023-04-16T01:15:02.894Z,100396.78
2023-04-16T01:17:29.533Z,100407.69
2023-04-16T01:20:00.363Z,100406.00
2023-04-16T01:22:28.615Z,100405.91
2023-04-16T01:24:55.203Z,100406.53
2023-04-16T01:27:21.744Z,100399.81
2023-04-16T01:29:48.456Z,100402.22
2023-04-16T01:32:15.085Z,100397.06
2023-04-16T01:34:41.798Z,100395.09
2023-04-16T01:37:08.516Z,100405.13
2023-04-16T01:39:35.097Z,100403.88
2023-04-16T01:42:02.342Z,100401.03
2023-04-16T01:44:29.064Z,100405.59
2023-04-16T01:46:55.756Z,100404.19
2023-04-16T01:49:23.172Z,100395.31
2023-04-16T01:51:49.826Z,100410.69
2023-04-16T01:54:16.432Z,100415.53
2023-04-16T01:56:43.121Z,100409.16
2023-04-16T01:59:09.843Z,100413.81
2023-04-16T02:01:36.662Z,100406.19
2023-04-16T02:04:03.433Z,100413.13
2023-04-16T02:06:30.632Z,100410.69
2023-04-16T02:08:57.214Z,100409.88
2023-04-16T02:11:23.760Z,100399.72
2023-04-16T02:13:50.553Z,100411.28
2023-04-16T02:16:17.141Z,100406.19
2023-04-16T02:18:43.789Z,100410.75
2023-04-16T02:21:10.495Z,100409.19
2023-04-16T02:23:37.453Z,100410.44
2023-04-16T02:26:04.187Z,100402.81
2023-04-16T02:28:30.971Z,100405.91
2023-04-16T02:30:57.576Z,100415.34
2023-04-16T02:33:26.460Z,100417.88
2023-04-16T02:35:53.219Z,100413.50
2023-04-16T02:38:19.955Z,100418.75
2023-04-16T02:40:46.637Z,100411.41
2023-04-16T02:43:13.186Z,100410.97
2023-04-16T02:45:39.809Z,100414.66
2023-04-16T02:48:08.744Z,100421.44
2023-04-16T02:50:35.409Z,100427.50
2023-04-16T02:53:02.101Z,100431.28
2023-04-16T02:55:29.549Z,100432.94
2023-04-16T02:57:56.174Z,100431.22
2023-04-16T03:00:22.878Z,100428.41
2023-04-16T03:02:49.621Z,100433.59
2023-04-16T03:05:16.353Z,100441.22
2023-04-16T03:07:42.971Z,100445.41
2023-04-16T03:10:10.263Z,100448.22
2023-04-16T03:12:36.827Z,100441.59
2023-04-16T03:15:03.646Z,100451.59
2023-04-16T03:17:30.418Z,100448.31
2023-04-16T03:19:57.072Z,100446.88
2023-04-16T03:22:23.762Z,100451.13
2023-04-16T03:24:50.376Z,100456.06
2023-04-16T03:27:16.979Z,100462.13
2023-04-16T03:29:43.682Z,100443.97
2023-04-16T03:32:11.596Z,100463.09
2023-04-16T03:34:39.761Z,100466.38
2023-04-16T03:37:06.639Z,100472.56
2023-04-16T03:39:34.568Z,100478.50
2023-04-16T03:42:02.234Z,100472.88
2023-04-16T03:44:29.081Z,100467.38
2023-04-16T03:46:55.841Z,100473.44
2023-04-16T03:49:22.615Z,100466.41
2023-04-16T03:51:49.300Z,100465.41
2023-04-16T03:54:15.984Z,100471.94
2023-04-16T03:56:43.083Z,100471.78
2023-04-16T03:59:10.271Z,100476.28
2023-04-16T04:01:37.056Z,100478.25
2023-04-16T04:04:04.019Z,100475.16
2023-04-16T04:06:31.141Z,100471.41
2023-04-16T04:08:57.862Z,100475.78
2023-04-16T04:11:24.746Z,100481.13
2023-04-16T04:13:51.292Z,100483.38
2023-04-16T04:16:18.061Z,100488.25
2023-04-16T04:18:44.720Z,100491.38
2023-04-16T04:21:11.343Z,100479.94
2023-04-16T04:23:38.034Z,100484.88
2023-04-16T04:26:05.767Z,100484.16
2023-04-16T04:28:33.051Z,100495.31
2023-04-16T04:31:00.645Z,100493.63
2023-04-16T04:33:27.735Z,100496.09
2023-04-16T04:35:54.967Z,100498.06
2023-04-16T04:38:25.167Z,100500.34
2023-04-16T04:40:52.860Z,100504.31
2023-04-16T04:43:20.229Z,100510.84
2023-04-16T04:45:46.974Z,100510.00
2023-04-16T04:48:13.675Z,100509.41
2023-04-16T04:50:41.103Z,100521.97
2023-04-16T04:53:10.448Z,100519.47
2023-04-16T04:55:38.988Z,100529.22
2023-04-16T04:58:06.854Z,100528.75
2023-04-16T05:00:34.710Z,100539.94
2023-04-16T05:03:06.872Z,100537.09
2023-04-16T05:05:33.604Z,100537.97
2023-04-16T05:08:00.232Z,100537.69
2023-04-16T05:10:28.210Z,100545.47
2023-04-16T05:12:54.855Z,100546.59
2023-04-16T05:15:21.617Z,100553.13
2023-04-16T05:17:48.229Z,100562.19
2023-04-16T05:20:14.957Z,100545.88
2023-04-16T05:22:41.569Z,100555.91
2023-04-16T05:25:08.848Z,100552.00
2023-04-16T05:27:37.144Z,100556.59
2023-04-16T05:30:04.329Z,100568.97
2023-04-16T05:32:31.020Z,100569.66
2023-04-16T05:34:57.781Z,100569.38
2023-04-16T05:37:24.365Z,100578.56
2023-04-16T05:39:51.155Z,100590.34
2023-04-16T05:42:17.743Z,100592.91
2023-04-16T05:44:44.331Z,100607.66
2023-04-16T05:47:11.033Z,100610.03
2023-04-16T05:49:37.669Z,100610.97
2023-04-16T05:52:05.683Z,100623.03
2023-04-16T05:54:32.283Z,100627.25
2023-04-16T05:56:59.576Z,100620.16
2023-04-16T05:59:26.296Z,100627.47
2023-04-16T06:01:52.869Z,100631.50
2023-04-16T06:04:19.526Z,100624.94
2023-04-16T06:06:46.313Z,100624.13
2023-04-16T06:09:12.915Z,100637.59
2023-04-16T06:11:39.616Z,100629.53
2023-04-16T06:14:06.242Z,100628.69
2023-04-16T06:16:32.893Z,100627.34
2023-04-16T06:18:59.591Z,100628.44
2023-04-16T06:21:26.701Z,100626.13
2023-04-16T06:23:55.053Z,100625.34
2023-04-16T06:26:21.699Z,100629.22
2023-04-16T06:28:48.432Z,100638.09
2023-04-16T06:31:15.039Z,100629.78
2023-04-16T06:33:41.694Z,100639.56
2023-04-16T06:36:08.260Z,100630.53
2023-04-16T06:38:36.035Z,100638.56
2023-04-16T06:41:02.617Z,100628.75
2023-04-16T06:43:30.147Z,100637.63
2023-04-16T06:45:56.707Z,100637.31
2023-04-16T06:48:23.280Z,100633.19
2023-04-16T06:50:49.983Z,100641.13
2023-04-16T06:53:16.620Z,100645.38
2023-04-16T06:55:43.192Z,100640.72
2023-04-16T06:58:09.917Z,100642.59
2023-04-16T07:00:36.492Z,100649.22
2023-04-16T07:03:04.260Z,100654.47
2023-04-16T07:05:32.748Z,100645.09
2023-04-16T07:07:59.540Z,100646.09
2023-04-16T07:10:26.261Z,100652.41
2023-04-16T07:12:52.914Z,100657.69
2023-04-16T07:15:19.587Z,100653.69
2023-04-16T07:17:46.335Z,100653.38
2023-04-16T07:20:12.914Z,100660.16
2023-04-16T07:22:39.529Z,100653.63
2023-04-16T07:25:06.466Z,100659.03
2023-04-16T07:27:33.050Z,100656.59
2023-04-16T07:30:03.418Z,100654.66
2023-04-16T07:32:30.099Z,100652.72
2023-04-16T07:34:57.058Z,100664.25
2023-04-16T07:37:23.597Z,100664.19
2023-04-16T07:39:50.185Z,100660.34
2023-04-16T07:42:19.295Z,100674.34
2023-04-16T07:44:46.099Z,100674.38
2023-04-16T07:47:12.718Z,100672.97
2023-04-16T07:49:39.531Z,100667.22
2023-04-16T07:52:06.129Z,100672.88
2023-04-16T07:54:32.735Z,100668.31
2023-04-16T07:56:59.269Z,100663.09
2023-04-16T07:59:26.279Z,100670.13
2023-04-16T08:01:56.491Z,100671.66
2023-04-16T08:04:25.763Z,100683.13
2023-04-16T08:06:53.819Z,100685.03
2023-04-16T08:09:21.702Z,100682.78
2023-04-16T08:11:49.989Z,100682.91
2023-04-16T08:14:17.836Z,100685.19
2023-04-16T08:16:45.001Z,100684.91
2023-04-16T08:19:11.746Z,100686.72
2023-04-16T08:21:38.697Z,100688.16
2023-04-16T08:24:05.542Z,100694.84
2023-04-16T08:26:32.123Z,100690.31
2023-04-16T08:28:58.699Z,100690.16
2023-04-16T08:31:26.348Z,100693.91
2023-04-16T08:33:53.074Z,100696.19
2023-04-16T08:36:19.712Z,100699.63
2023-04-16T08:38:46.629Z,100695.69
2023-04-16T08:41:14.049Z,100690.44
2023-04-16T08:43:45.273Z,100695.88
2023-04-16T08:46:12.697Z,100695.63
2023-04-16T08:48:43.498Z,100684.16
2023-04-16T08:51:11.199Z,100691.31
2023-04-16T08:53:59.531Z,100694.19
2023-04-16T08:56:27.222Z,100699.56
2023-04-16T08:58:55.298Z,100703.31
2023-04-16T09:01:22.327Z,100710.03
2023-04-16T09:03:49.429Z,100713.84
2023-04-16T09:06:17.535Z,100698.88
2023-04-16T09:08:45.763Z,100702.06
2023-04-16T09:11:13.854Z,100699.03
2023-04-16T09:13:40.396Z,100703.78
2023-04-16T09:16:10.979Z,100699.88
2023-04-16T09:18:37.649Z,100699.69
2023-04-16T09:21:04.829Z,100707.00
2023-04-16T09:23:31.718Z,100709.81
2023-04-16T09:25:59.489Z,100709.03
2023-04-16T09:28:39.973Z,100710.16
2023-04-16T09:31:10.958Z,100708.25
2023-04-16T09:33:37.661Z,100710.50
2023-04-16T09:36:05.812Z,100718.19
2023-04-16T09:38:52.264Z,100702.38
2023-04-16T09:41:19.942Z,100690.06
2023-04-16T09:44:02.102Z,100699.88
2023-04-16T09:46:35.013Z,100693.19
2023-04-16T09:49:15.645Z,100701.25
2023-04-16T09:51:47.002Z,100693.19
2023-04-16T09:54:13.752Z,100696.53
2023-04-16T09:56:46.418Z,100690.56
2023-04-16T09:59:20.489Z,100691.75
2023-04-16T10:01:47.281Z,100690.72
2023-04-16T10:04:13.923Z,100701.25
2023-04-16T10:06:40.638Z,100684.44
2023-04-16T10:09:09.380Z,100693.47
2023-04-16T10:11:37.158Z,100690.56
2023-04-16T10:14:03.858Z,100695.44
2023-04-16T10:16:31.079Z,100693.47
2023-04-16T10:18:58.975Z,100687.19
2023-04-16T10:21:26.505Z,100682.75
2023-04-16T10:23:53.319Z,100689.84
2023-04-16T10:26:20.110Z,100685.09
2023-04-16T10:28:46.984Z,100688.91
2023-04-16T10:31:14.015Z,100691.91
2023-04-16T10:33:42.124Z,100685.47
2023-04-16T10:36:09.971Z,100678.41
2023-04-16T10:38:40.134Z,100683.88
2023-04-16T10:41:07.928Z,100678.19
2023-04-16T10:43:41.107Z,100675.38
2023-04-16T10:46:33.151Z,100673.84
2023-04-16T10:49:15.280Z,100672.81
2023-04-16T10:51:42.222Z,100668.78
2023-04-16T10:54:08.896Z,100662.47
2023-04-16T10:56:36.733Z,100676.03
2023-04-16T10:59:07.846Z,100667.59
2023-04-16T11:01:36.652Z,100663.50
2023-04-16T11:04:22.070Z,100670.03
2023-04-16T11:07:04.297Z,100660.06
2023-04-16T11:10:02.443Z,100651.28
2023-04-16T11:12:29.125Z,100659.78
2023-04-16T11:15:01.228Z,100652.47
2023-04-16T11:17:39.126Z,100648.84
2023-04-16T11:20:18.879Z,100645.44
2023-04-16T11:22:48.503Z,100643.06
2023-04-16T11:25:26.406Z,100644.19
2023-04-16T11:27:53.681Z,100653.88
2023-04-16T11:30:36.857Z,100654.91
2023-04-16T11:33:04.749Z,100642.34
2023-04-16T11:35:31.572Z,100640.41
2023-04-16T11:38:01.099Z,100640.44
2023-04-16T11:40:31.497Z,100638.91
2023-04-16T11:43:13.891Z,100642.25
2023-04-16T11:45:55.490Z,100629.31
2023-04-16T11:48:22.262Z,100638.13
2023-04-16T11:50:56.510Z,100630.78
2023-04-16T11:53:23.093Z,100633.34
2023-04-16T11:55:49.819Z,100631.22
2023-04-16T11:58:16.651Z,100634.75
2023-04-16T12:00:45.157Z,100629.19
2023-04-16T12:03:12.024Z,100631.81
2023-04-16T12:05:40.776Z,100625.84
2023-04-16T12:08:08.675Z,100632.47
2023-04-16T12:10:37.652Z,100623.03
2023-04-16T12:13:15.387Z,100627.94
2023-04-16T12:15:53.563Z,100625.63
2023-04-16T12:18:23.270Z,100626.06
2023-04-16T12:20:53.467Z,100625.50
2023-04-16T12:23:26.981Z,100612.44
2023-04-16T12:25:54.331Z,100613.75
2023-04-16T12:28:34.994Z,100611.47
2023-04-16T12:31:02.783Z,100613.56
2023-04-16T12:33:29.538Z,100606.84
2023-04-16T12:35:56.834Z,100606.63
2023-04-16T12:38:24.602Z,100595.31
2023-04-16T12:40:51.986Z,100603.69
2023-04-16T12:43:19.849Z,100593.59
2023-04-16T12:45:46.598Z,100597.41
2023-04-16T12:48:14.727Z,100596.97
2023-04-16T12:50:44.171Z,100599.63
2023-04-16T12:53:11.593Z,100594.94
2023-04-16T12:55:38.797Z,100601.78
2023-04-16T12:58:05.761Z,100592.16
2023-04-16T13:00:32.856Z,100588.78
2023-04-16T13:02:59.734Z,100596.97
2023-04-16T13:05:27.184Z,100598.88
2023-04-16T13:07:55.119Z,100593.59
2023-04-16T13:10:22.216Z,100593.19
2023-04-16T13:12:49.191Z,100588.38
2023-04-16T13:15:41.447Z,100583.25
2023-04-16T13:18:08.413Z,100587.75
2023-04-16T13:20:36.048Z,100587.44
2023-04-16T13:23:04.930Z,100584.38
2023-04-16T13:25:31.908Z,100585.88
2023-04-16T13:27:58.478Z,100585.03
2023-04-16T13:30:26.131Z,100584.78
2023-04-16T13:32:52.708Z,100580.56
2023-04-16T13:35:19.318Z,100585.44
2023-04-16T13:37:51.796Z,100586.41
2023-04-16T13:40:18.445Z,100575.69
2023-04-16T13:42:59.509Z,100583.34
2023-04-16T13:45:28.856Z,100582.78
2023-04-16T13:47:57.262Z,100590.88
2023-04-16T13:50:26.331Z,100594.88
2023-04-16T13:52:53.978Z,100580.50
2023-04-16T13:55:30.606Z,100581.47
2023-04-16T13:57:57.361Z,100585.91
2023-04-16T14:00:25.500Z,100592.72
2023-04-16T14:02:52.715Z,100590.38
2023-04-16T14:05:19.565Z,100598.31
2023-04-16T14:07:46.383Z,100596.91
2023-04-16T14:10:13.028Z,100594.16
2023-04-16T14:12:39.808Z,100603.78
2023-04-16T14:15:07.590Z,100604.22
2023-04-16T14:17:34.227Z,100596.09
2023-04-16T14:20:01.029Z,100592.72
2023-04-16T14:22:27.733Z,100593.47
2023-04-16T14:24:54.308Z,100597.63
2023-04-16T14:27:21.038Z,100594.34
2023-04-16T14:29:47.683Z,100596.78
2023-04-16T14:32:14.678Z,100599.47
2023-04-16T14:34:41.265Z,100592.34
2023-04-16T14:37:07.845Z,100596.50
2023-04-16T14:39:34.497Z,100593.66
2023-04-16T14:42:01.094Z,100592.44
2023-04-16T14:44:27.691Z,100586.91
2023-04-16T14:46:55.317Z,100594.41
2023-04-16T14:49:21.916Z,100592.25
2023-04-16T14:51:49.019Z,100602.25
2023-04-16T14:54:15.773Z,100598.25
2023-04-16T14:56:42.363Z,100604.44
2023-04-16T14:59:09.273Z,100603.63
2023-04-16T15:01:39.558Z,100599.44
2023-04-16T15:04:06.741Z,100599.00
2023-04-16T15:06:34.011Z,100600.44
2023-04-16T15:09:01.217Z,100602.75
2023-04-16T15:11:28.696Z,100592.44
2023-04-16T15:13:55.345Z,100602.50
2023-04-16T15:16:21.970Z,100606.63
2023-04-16T15:18:50.819Z,100609.00
2023-04-16T15:21:17.430Z,100607.53
2023-04-16T15:23:44.119Z,100609.00
2023-04-16T15:26:10.735Z,100610.88
2023-04-16T15:28:37.333Z,100613.84
2023-04-16T15:31:04.360Z,100614.44
2023-04-16T15:33:31.170Z,100612.53
2023-04-16T15:35:57.766Z,100610.16
2023-04-16T15:38:24.342Z,100617.94
2023-04-16T15:40:50.985Z,100618.16
2023-04-16T15:43:17.593Z,100611.69
2023-04-16T15:45:44.223Z,100606.13
2023-04-16T15:48:10.979Z,100609.53
2023-04-16T15:50:37.609Z,100615.28
2023-04-16T15:53:04.201Z,100614.00
2023-04-16T15:55:32.396Z,100625.66
2023-04-16T15:57:58.967Z,100612.84
2023-04-16T16:00:26.008Z,100627.97
2023-04-16T16:02:52.843Z,100621.50
2023-04-16T16:05:19.561Z,100631.84
2023-04-16T16:07:46.434Z,100635.09
2023-04-16T16:10:13.479Z,100635.19
2023-04-16T16:12:40.862Z,100649.91
2023-04-16T16:15:07.867Z,100652.66
2023-04-16T16:17:34.552Z,100647.03
2023-04-16T16:20:01.388Z,100653.84
2023-04-16T16:22:28.596Z,100654.88
2023-04-16T16:24:56.089Z,100650.97
2023-04-16T16:27:23.040Z,100645.59
2023-04-16T16:29:49.768Z,100648.22
2023-04-16T16:32:16.699Z,100647.00
2023-04-16T16:34:43.356Z,100651.81
2023-04-16T16:37:10.061Z,100659.50
2023-04-16T16:42:21.171Z,100657.34
2023-04-16T16:44:48.844Z,100655.16
2023-04-16T16:47:15.538Z,100640.75
2023-04-16T16:49:45.897Z,100662.63
2023-04-16T16:52:12.563Z,100665.25
2023-04-16T16:55:18.654Z,100672.25
2023-04-16T16:57:47.040Z,100681.06
2023-04-16T17:00:15.154Z,100680.03
2023-04-16T17:02:42.075Z,100698.47
2023-04-16T17:05:09.393Z,100699.66
2023-04-16T17:07:36.510Z,100699.50
2023-04-16T17:10:06.079Z,100707.69
2023-04-16T17:12:33.390Z,100710.03
2023-04-16T17:15:00.085Z,100702.53
2023-04-16T17:17:28.099Z,100701.88
2023-04-16T17:19:54.877Z,100707.69
2023-04-16T17:22:21.754Z,100706.06
2023-04-16T17:24:48.407Z,100710.84
2023-04-16T17:27:15.043Z,100703.44
2023-04-16T17:29:41.693Z,100714.28
2023-04-16T17:32:08.419Z,100720.63
2023-04-16T17:34:35.517Z,100724.72
2023-04-16T17:37:02.203Z,100733.03
2023-04-16T17:39:31.982Z,100737.31
2023-04-16T17:42:01.198Z,100740.66
2023-04-16T17:44:28.190Z,100746.66
2023-04-16T17:46:56.023Z,100729.72
2023-04-16T17:49:22.857Z,100746.59
2023-04-16T17:51:49.505Z,100742.56
2023-04-16T17:54:16.132Z,100750.69
2023-04-16T17:56:42.798Z,100748.66
2023-04-16T17:59:09.419Z,100753.75
2023-04-16T18:01:36.232Z,100762.75
2023-04-16T18:04:02.910Z,100767.50
2023-04-16T18:06:29.644Z,100769.72
2023-04-16T18:08:56.779Z,100768.03
2023-04-16T18:11:23.329Z,100767.56
2023-04-16T18:13:49.939Z,100767.19
2023-04-16T18:16:17.371Z,100768.41
2023-04-16T18:18:44.922Z,100770.16
2023-04-16T18:21:12.378Z,100770.84
2023-04-16T18:23:42.900Z,100771.91
2023-04-16T18:26:11.097Z,100772.31
2023-04-16T18:28:37.946Z,100777.41
2023-04-16T18:31:06.800Z,100774.22
2023-04-16T18:33:54.253Z,100782.19
2023-04-16T18:36:21.190Z,100785.44
2023-04-16T18:39:00.198Z,100789.66
2023-04-16T18:41:28.029Z,100779.50
2023-04-16T18:43:57.922Z,100783.94
2023-04-16T18:46:25.280Z,100789.22
2023-04-16T18:48:53.099Z,100792.59
2023-04-16T18:51:19.700Z,100790.94
2023-04-16T18:53:47.079Z,100797.69
2023-04-16T18:56:15.452Z,100801.78
2023-04-16T18:58:43.207Z,100799.25
2023-04-16T19:01:13.008Z,100804.66
2023-04-16T19:03:40.028Z,100811.22
2023-04-16T19:06:06.810Z,100814.63
2023-04-16T19:08:33.730Z,100805.16
2023-04-16T19:11:00.411Z,100821.22
2023-04-16T19:13:27.145Z,100814.31
2023-04-16T19:16:01.176Z,100817.69
2023-04-16T19:18:28.070Z,100816.81
2023-04-16T19:21:01.271Z,100815.47
2023-04-16T19:23:28.233Z,100816.13
2023-04-16T19:25:57.874Z,100821.88
2023-04-16T19:28:25.561Z,100819.00
2023-04-16T19:30:52.955Z,100814.78
2023-04-16T19:33:20.085Z,100824.06
2023-04-16T19:35:47.542Z,100820.16
2023-04-16T19:38:14.307Z,100817.44
2023-04-16T19:40:43.716Z,100827.22
2023-04-16T19:43:10.416Z,100825.19
2023-04-16T19:45:46.194Z,100834.31
2023-04-16T19:48:13.528Z,100834.13
2023-04-16T19:50:41.391Z,100829.91
2023-04-16T19:53:08.996Z,100821.78
2023-04-16T19:55:35.872Z,100827.38
2023-04-16T19:58:06.278Z,100833.06
2023-04-16T20:00:33.969Z,100830.91
2023-04-16T20:03:00.860Z,100810.22
2023-04-16T20:05:28.419Z,100836.53
2023-04-16T20:07:55.902Z,100826.53
2023-04-16T20:10:22.999Z,100837.13
2023-04-16T20:12:50.869Z,100830.66
2023-04-16T20:15:18.396Z,100827.06
2023-04-16T20:17:45.124Z,100834.13
2023-04-16T20:20:11.850Z,100822.47
2023-04-16T20:22:39.527Z,100825.56
2023-04-16T20:25:07.199Z,100828.59
2023-04-16T20:27:34.099Z,100835.06
2023-04-16T20:30:01.905Z,100838.63
2023-04-16T20:32:28.858Z,100831.00
2023-04-16T20:34:55.726Z,100833.66
2023-04-16T20:37:22.688Z,100829.09
2023-04-16T20:39:50.269Z,100836.78
2023-04-16T20:42:16.867Z,100825.72
2023-04-16T20:44:50.302Z,100829.78
2023-04-16T20:47:17.327Z,100822.78
2023-04-16T20:49:47.313Z,100827.31
2023-04-16T20:52:14.816Z,100826.50
2023-04-16T20:54:41.560Z,100829.34
2023-04-16T20:57:08.370Z,100834.25
2023-04-16T20:59:36.828Z,100826.56
2023-04-16T21:02:03.747Z,100826.41
2023-04-16T21:04:30.534Z,100832.09
2023-04-16T21:06:57.392Z,100829.03
2023-04-16T21:09:24.601Z,100827.50
2023-04-16T21:11:51.434Z,100827.81
2023-04-16T21:14:18.417Z,100825.19
2023-04-16T21:16:45.211Z,100822.38
2023-04-16T21:19:12.016Z,100820.75
2023-04-16T21:21:38.948Z,100826.97
2023-04-16T21:24:05.957Z,100822.59
2023-04-16T21:26:32.572Z,100832.38
2023-04-16T21:28:59.223Z,100827.47
2023-04-16T21:31:26.170Z,100825.25
2023-04-16T21:33:52.804Z,100828.50
2023-04-16T21:36:19.605Z,100820.72
2023-04-16T21:38:49.782Z,100825.66
2023-04-16T21:41:16.854Z,100826.16
2023-04-16T21:43:43.579Z,100818.78
2023-04-16T21:46:10.457Z,100826.41
2023-04-16T21:48:37.121Z,100821.00
2023-04-16T21:51:07.087Z,100815.38
2023-04-16T21:53:34.069Z,100819.91
2023-04-16T21:56:00.784Z,100822.50
2023-04-16T21:58:27.412Z,100829.25
2023-04-16T22:00:54.383Z,100821.09
2023-04-16T22:03:28.200Z,100816.00
2023-04-16T22:06:00.835Z,100811.16
2023-04-16T22:08:28.924Z,100805.22
2023-04-16T22:10:59.624Z,100815.72
2023-04-16T22:13:26.526Z,100811.94
2023-04-16T22:15:53.604Z,100815.59
2023-04-16T22:18:20.358Z,100810.94
2023-04-16T22:20:51.025Z,100805.88
2023-04-16T22:23:17.737Z,100811.28
2023-04-16T22:25:44.526Z,100810.75
2023-04-16T22:28:11.383Z,100804.97
2023-04-16T22:30:38.207Z,100804.78
2023-04-16T22:33:05.296Z,100807.50
2023-04-16T22:35:31.974Z,100812.06
2023-04-16T22:37:58.582Z,100803.56
2023-04-16T22:40:25.148Z,100808.97
2023-04-16T22:42:51.715Z,100797.81
2023-04-16T22:45:18.384Z,100799.50
2023-04-16T22:47:45.100Z,100801.66
2023-04-16T22:50:11.839Z,100807.75
2023-04-16T22:52:38.465Z,100797.94
2023-04-16T22:55:05.662Z,100797.94
2023-04-16T22:57:32.628Z,100799.13
2023-04-16T22:59:59.168Z,100790.31
2023-04-16T23:02:26.059Z,100799.94
2023-04-16T23:04:52.725Z,100792.56
2023-04-16T23:07:19.308Z,100787.84
2023-04-16T23:09:46.112Z,100789.06
2023-04-16T23:12:12.738Z,100793.13
2023-04-16T23:14:39.465Z,100793.78
2023-04-16T23:17:06.029Z,100789.50
2023-04-16T23:19:32.611Z,100802.69
2023-04-16T23:21:59.221Z,100788.59
2023-04-16T23:24:26.527Z,100793.72
2023-04-16T23:26:53.233Z,100794.56
2023-04-16T23:29:20.832Z,100796.84
2023-04-16T23:31:47.817Z,100792.31
2023-04-16T23:34:14.528Z,100790.59
2023-04-16T23:36:41.213Z,100785.81
2023-04-16T23:39:07.834Z,100785.00
2023-04-16T23:41:34.781Z,100785.19
2023-04-16T23:44:01.402Z,100786.75
2023-04-16T23:46:28.030Z,100783.41
2023-04-16T23:48:55.432Z,100784.97
2023-04-16T23:51:22.153Z,100787.09
2023-04-16T23:53:48.849Z,100780.44
2023-04-16T23:56:15.957Z,100774.94
2023-04-16T23:58:42.560Z,100768.59
